createdAt,value
2018-09-30T00:01:01.099Z,7.70
2018-09-30T00:03:35.386Z,7.70
2018-09-30T00:06:09.824Z,7.80
2018-09-30T00:08:44.127Z,7.90
2018-09-30T00:11:18.608Z,7.90
2018-09-30T00:13:52.904Z,8.00
2018-09-30T00:16:27.328Z,8.00
2018-09-30T00:19:01.912Z,7.90
2018-09-30T00:21:36.252Z,7.90
2018-09-30T00:24:16.225Z,8.00
2018-09-30T00:26:55.798Z,7.90
2018-09-30T00:29:30.862Z,7.90
2018-09-30T00:32:05.256Z,7.80
2018-09-30T00:34:39.660Z,7.70
2018-09-30T00:37:14.055Z,7.30
2018-09-30T00:39:48.444Z,7.00
2018-09-30T00:42:22.927Z,6.80
2018-09-30T00:44:57.276Z,6.80
2018-09-30T00:47:31.703Z,7.00
2018-09-30T00:50:06.355Z,7.10
2018-09-30T00:52:40.748Z,7.20
2018-09-30T00:55:15.042Z,7.30
2018-09-30T00:57:49.450Z,7.30
2018-09-30T01:00:23.731Z,7.30
2018-09-30T01:02:58.980Z,7.40
2018-09-30T01:05:33.392Z,7.40
2018-09-30T01:08:07.802Z,7.40
2018-09-30T01:10:42.036Z,7.40
2018-09-30T01:13:16.565Z,7.30
2018-09-30T01:15:51.060Z,7.30
2018-09-30T01:18:25.499Z,7.40
2018-09-30T01:20:59.887Z,7.40
2018-09-30T01:23:34.423Z,7.40
2018-09-30T01:26:08.749Z,7.40
2018-09-30T01:28:43.168Z,7.40
2018-09-30T01:31:17.652Z,7.10
2018-09-30T01:33:51.999Z,7.00
2018-09-30T01:36:26.475Z,6.90
2018-09-30T01:39:00.832Z,6.90
2018-09-30T01:41:35.393Z,7.00
2018-09-30T01:44:09.815Z,7.00
2018-09-30T01:46:44.312Z,7.10
2018-09-30T01:49:18.755Z,7.00
2018-09-30T01:52:04.508Z,7.00
2018-09-30T01:54:38.830Z,7.10
2018-09-30T01:57:13.137Z,7.10
2018-09-30T01:59:47.574Z,7.10
2018-09-30T02:02:22.072Z,7.10
2018-09-30T02:04:56.431Z,7.20
2018-09-30T02:07:30.830Z,7.20
2018-09-30T02:10:05.416Z,7.20
2018-09-30T02:12:39.807Z,7.10
2018-09-30T02:15:14.284Z,7.10
2018-09-30T02:17:48.595Z,7.10
2018-09-30T02:20:23.044Z,7.10
2018-09-30T02:22:57.431Z,7.20
2018-09-30T02:25:31.891Z,7.00
2018-09-30T02:28:06.400Z,7.00
2018-09-30T02:30:40.802Z,7.00
2018-09-30T02:33:15.275Z,7.00
2018-09-30T02:35:49.540Z,7.00
2018-09-30T02:38:24.003Z,7.00
2018-09-30T02:40:58.520Z,7.00
2018-09-30T02:43:33.113Z,7.00
2018-09-30T02:46:07.400Z,7.00
2018-09-30T02:48:41.622Z,7.00
2018-09-30T02:51:16.083Z,7.00
2018-09-30T02:53:50.515Z,7.10
2018-09-30T02:56:24.824Z,7.10
2018-09-30T02:58:59.125Z,7.20
2018-09-30T03:01:33.542Z,7.30
2018-09-30T03:04:07.931Z,7.30
2018-09-30T03:06:47.700Z,7.30
2018-09-30T03:09:22.005Z,7.30
2018-09-30T03:11:56.505Z,7.30
2018-09-30T03:14:30.889Z,7.10
2018-09-30T03:17:05.417Z,7.10
2018-09-30T03:19:39.940Z,7.00
2018-09-30T03:22:14.224Z,7.10
2018-09-30T03:24:48.617Z,7.00
2018-09-30T03:27:23.031Z,7.00
2018-09-30T03:29:57.791Z,6.90
2018-09-30T03:32:32.259Z,6.80
2018-09-30T03:35:06.601Z,6.60
2018-09-30T03:37:41.308Z,6.30
2018-09-30T03:40:15.613Z,6.20
2018-09-30T03:42:49.876Z,6.20
2018-09-30T03:45:24.210Z,6.30
2018-09-30T03:47:58.586Z,6.30
2018-09-30T03:50:32.875Z,6.30
2018-09-30T03:53:07.207Z,6.30
2018-09-30T03:55:41.635Z,6.40
2018-09-30T03:58:16.120Z,6.40
2018-09-30T04:00:50.572Z,6.30
2018-09-30T04:03:25.042Z,6.40
2018-09-30T04:05:59.335Z,6.40
2018-09-30T04:08:33.584Z,6.50
2018-09-30T04:11:07.959Z,6.50
2018-09-30T04:13:42.399Z,6.50
2018-09-30T04:16:16.780Z,6.50
2018-09-30T04:18:51.115Z,6.40
2018-09-30T04:21:25.499Z,6.40
2018-09-30T04:24:05.403Z,6.50
2018-09-30T04:26:40.845Z,6.40
2018-09-30T04:29:15.108Z,6.40
2018-09-30T04:31:49.404Z,6.30
2018-09-30T04:34:23.733Z,6.20
2018-09-30T04:36:58.248Z,6.20
2018-09-30T04:39:32.835Z,6.20
2018-09-30T04:42:07.161Z,6.10
2018-09-30T04:44:41.551Z,6.10
2018-09-30T04:47:15.840Z,6.20
2018-09-30T04:49:50.169Z,6.20
2018-09-30T04:52:24.418Z,6.10
2018-09-30T04:54:58.831Z,6.10
2018-09-30T04:57:33.290Z,6.10
2018-09-30T05:00:07.733Z,6.00
2018-09-30T05:02:42.242Z,6.10
2018-09-30T05:05:16.626Z,6.00
2018-09-30T05:07:51.036Z,6.00
2018-09-30T05:10:25.491Z,6.00
2018-09-30T05:12:59.789Z,6.00
2018-09-30T05:15:34.044Z,6.10
2018-09-30T05:18:08.459Z,6.10
2018-09-30T05:20:42.939Z,6.20
2018-09-30T05:23:17.379Z,6.20
2018-09-30T05:25:51.791Z,6.10
2018-09-30T05:28:26.333Z,6.10
2018-09-30T05:31:00.692Z,6.00
2018-09-30T05:33:35.079Z,6.00
2018-09-30T05:36:09.392Z,6.00
2018-09-30T05:38:43.754Z,6.00
2018-09-30T05:41:18.185Z,6.00
2018-09-30T05:43:52.432Z,5.90
2018-09-30T05:46:26.796Z,5.90
2018-09-30T05:49:01.172Z,5.70
2018-09-30T05:51:35.626Z,5.70
2018-09-30T05:54:09.935Z,5.80
2018-09-30T05:56:44.244Z,5.90
2018-09-30T05:59:18.510Z,5.90
2018-09-30T06:01:52.922Z,6.00
2018-09-30T06:04:27.342Z,5.90
2018-09-30T06:07:01.777Z,5.90
2018-09-30T06:09:36.431Z,6.00
2018-09-30T06:12:10.809Z,6.10
2018-09-30T06:14:45.271Z,6.20
2018-09-30T06:17:26.440Z,6.30
2018-09-30T06:20:00.991Z,6.40
2018-09-30T06:22:35.676Z,6.50
2018-09-30T06:25:10.075Z,6.60
2018-09-30T06:27:44.674Z,6.60
2018-09-30T06:30:19.217Z,6.60
2018-09-30T06:32:53.665Z,6.70
2018-09-30T06:35:28.055Z,6.70
2018-09-30T06:38:02.757Z,6.80
2018-09-30T06:40:37.376Z,6.90
2018-09-30T06:43:11.784Z,6.90
2018-09-30T06:45:46.233Z,7.00
2018-09-30T06:48:20.806Z,7.20
2018-09-30T06:50:55.628Z,7.10
2018-09-30T06:53:29.950Z,7.30
2018-09-30T06:56:04.390Z,7.40
2018-09-30T06:58:38.846Z,7.60
2018-09-30T07:01:13.247Z,7.50
2018-09-30T07:03:47.993Z,7.50
2018-09-30T07:06:22.597Z,7.30
2018-09-30T07:08:57.255Z,7.30
2018-09-30T07:11:31.770Z,7.50
2018-09-30T07:14:06.387Z,7.50
2018-09-30T07:16:40.993Z,7.70
2018-09-30T07:19:15.551Z,8.00
2018-09-30T07:21:49.966Z,8.30
2018-09-30T07:24:24.447Z,8.40
2018-09-30T07:26:59.132Z,8.50
2018-09-30T07:29:33.835Z,8.70
2018-09-30T07:32:08.314Z,9.00
2018-09-30T07:34:42.892Z,9.10
2018-09-30T07:37:17.575Z,9.20
2018-09-30T07:39:51.988Z,9.50
2018-09-30T07:42:26.480Z,9.70
2018-09-30T07:45:00.899Z,9.70
2018-09-30T07:47:35.455Z,9.80
2018-09-30T07:50:10.043Z,9.90
2018-09-30T07:52:44.628Z,10.00
2018-09-30T07:55:19.285Z,10.10
2018-09-30T07:57:54.003Z,10.20
2018-09-30T08:00:28.572Z,10.50
2018-09-30T08:03:03.173Z,10.80
2018-09-30T08:05:37.874Z,11.00
2018-09-30T08:08:12.427Z,11.20
2018-09-30T08:10:47.048Z,11.50
2018-09-30T08:13:21.578Z,11.60
2018-09-30T08:15:56.182Z,11.90
2018-09-30T08:18:30.798Z,12.00
2018-09-30T08:21:05.505Z,12.30
2018-09-30T08:23:40.179Z,12.50
2018-09-30T08:26:14.712Z,12.70
2018-09-30T08:28:49.302Z,12.90
2018-09-30T08:31:23.784Z,13.10
2018-09-30T08:33:58.710Z,13.30
2018-09-30T08:36:33.452Z,13.40
2018-09-30T08:39:08.690Z,13.60
2018-09-30T08:41:43.262Z,13.80
2018-09-30T08:44:17.945Z,14.00
2018-09-30T08:46:52.724Z,14.10
2018-09-30T08:49:27.199Z,14.30
2018-09-30T08:52:01.553Z,14.50
2018-09-30T08:54:36.049Z,14.60
2018-09-30T08:57:10.730Z,14.80
2018-09-30T08:59:45.171Z,14.90
2018-09-30T09:02:19.660Z,15.00
2018-09-30T09:04:54.088Z,15.10
2018-09-30T09:07:28.536Z,15.20
2018-09-30T09:10:03.004Z,15.30
2018-09-30T09:12:37.508Z,15.50
2018-09-30T09:15:12.234Z,15.60
2018-09-30T09:17:46.709Z,15.80
2018-09-30T09:20:21.172Z,15.90
2018-09-30T09:22:55.873Z,16.10
2018-09-30T09:25:30.459Z,16.20
2018-09-30T09:28:05.286Z,16.30
2018-09-30T09:30:39.800Z,16.00
2018-09-30T09:33:14.246Z,16.00
2018-09-30T09:35:48.719Z,16.20
2018-09-30T09:38:23.024Z,16.30
2018-09-30T09:40:57.464Z,16.30
2018-09-30T09:43:31.771Z,16.40
2018-09-30T09:46:06.291Z,16.40
2018-09-30T09:48:40.673Z,16.30
2018-09-30T09:51:14.976Z,16.50
2018-09-30T09:53:49.444Z,16.60
2018-09-30T09:56:23.703Z,16.80
2018-09-30T09:58:58.148Z,16.90
2018-09-30T10:01:32.412Z,17.10
2018-09-30T10:04:06.701Z,17.30
2018-09-30T10:06:41.121Z,17.60
2018-09-30T10:09:15.405Z,17.70
2018-09-30T10:11:49.672Z,17.70
2018-09-30T10:14:24.147Z,17.80
2018-09-30T10:16:58.444Z,17.70
2018-09-30T10:19:33.154Z,17.70
2018-09-30T10:22:07.687Z,17.70
2018-09-30T10:24:42.071Z,17.70
2018-09-30T10:27:16.640Z,17.70
2018-09-30T10:29:50.932Z,17.60
2018-09-30T10:32:25.690Z,17.60
2018-09-30T10:35:00.264Z,17.60
2018-09-30T10:37:34.671Z,17.70
2018-09-30T10:40:08.943Z,17.80
2018-09-30T10:42:43.585Z,17.90
2018-09-30T10:45:18.250Z,18.10
2018-09-30T10:47:52.740Z,18.30
2018-09-30T10:50:27.008Z,18.50
2018-09-30T10:53:01.261Z,18.60
2018-09-30T10:55:35.576Z,18.70
2018-09-30T10:58:10.254Z,18.70
2018-09-30T11:00:44.716Z,18.50
2018-09-30T11:03:19.031Z,18.80
2018-09-30T11:05:53.400Z,19.00
2018-09-30T11:08:27.794Z,19.20
2018-09-30T11:11:02.157Z,19.30
2018-09-30T11:13:36.572Z,19.30
2018-09-30T11:16:10.890Z,19.40
2018-09-30T11:18:45.450Z,19.40
2018-09-30T11:21:19.959Z,19.30
2018-09-30T11:23:54.403Z,19.40
2018-09-30T11:26:28.890Z,19.60
2018-09-30T11:29:03.487Z,19.80
2018-09-30T11:31:37.977Z,19.60
2018-09-30T11:34:12.412Z,19.40
2018-09-30T11:36:46.875Z,19.40
2018-09-30T11:39:21.329Z,19.50
2018-09-30T11:41:55.583Z,19.80
2018-09-30T11:44:30.139Z,19.90
2018-09-30T11:47:04.567Z,19.80
2018-09-30T11:49:39.027Z,19.80
2018-09-30T11:52:13.372Z,20.10
2018-09-30T11:54:47.671Z,20.40
2018-09-30T11:57:22.144Z,20.60
2018-09-30T11:59:56.565Z,20.60
2018-09-30T12:02:30.856Z,20.40
2018-09-30T12:05:05.268Z,20.30
2018-09-30T12:07:39.772Z,20.60
2018-09-30T12:10:14.255Z,20.80
2018-09-30T12:12:48.973Z,21.00
2018-09-30T12:15:23.647Z,21.00
2018-09-30T12:17:58.225Z,21.10
2018-09-30T12:20:32.613Z,21.20
2018-09-30T12:23:07.331Z,21.20
2018-09-30T12:25:41.923Z,21.50
2018-09-30T12:28:16.286Z,21.50
2018-09-30T12:30:50.878Z,21.70
2018-09-30T12:33:25.159Z,21.80
2018-09-30T12:35:59.613Z,21.80
2018-09-30T12:38:33.999Z,21.80
2018-09-30T12:41:08.659Z,21.90
2018-09-30T12:43:43.028Z,22.00
2018-09-30T12:46:17.735Z,21.70
2018-09-30T12:48:52.143Z,21.70
2018-09-30T12:51:26.471Z,21.70
2018-09-30T12:54:00.723Z,21.70
2018-09-30T12:56:35.076Z,21.80
2018-09-30T12:59:09.335Z,21.70
2018-09-30T13:01:43.902Z,21.90
2018-09-30T13:04:18.346Z,22.10
2018-09-30T13:06:52.664Z,22.10
2018-09-30T13:09:27.083Z,22.20
2018-09-30T13:12:01.562Z,22.30
2018-09-30T13:14:36.144Z,22.30
2018-09-30T13:17:10.659Z,22.20
2018-09-30T13:19:45.212Z,22.30
2018-09-30T13:22:19.576Z,22.40
2018-09-30T13:24:53.927Z,22.50
2018-09-30T13:27:28.379Z,22.50
2018-09-30T13:30:02.785Z,22.40
2018-09-30T13:32:37.255Z,22.40
2018-09-30T13:35:12.082Z,22.60
2018-09-30T13:37:46.624Z,22.80
2018-09-30T13:40:20.994Z,23.00
2018-09-30T13:42:55.412Z,23.00
2018-09-30T13:45:29.775Z,22.90
2018-09-30T13:48:04.213Z,22.80
2018-09-30T13:50:38.515Z,22.60
2018-09-30T13:53:12.935Z,22.60
2018-09-30T13:55:47.578Z,22.60
2018-09-30T13:58:22.004Z,22.70
2018-09-30T14:00:56.637Z,22.70
2018-09-30T14:03:30.970Z,22.80
2018-09-30T14:06:05.247Z,22.70
2018-09-30T14:08:39.589Z,22.70
2018-09-30T14:11:14.096Z,22.90
2018-09-30T14:13:48.487Z,22.80
2018-09-30T14:16:22.871Z,22.90
2018-09-30T14:18:57.306Z,23.00
2018-09-30T14:21:31.699Z,22.90
2018-09-30T14:24:06.252Z,22.90
2018-09-30T14:26:40.660Z,22.70
2018-09-30T14:29:15.017Z,22.50
2018-09-30T14:31:49.452Z,22.40
2018-09-30T14:34:23.740Z,22.40
2018-09-30T14:36:58.079Z,22.40
2018-09-30T14:39:32.447Z,22.40
2018-09-30T14:42:06.952Z,22.40
2018-09-30T14:44:41.339Z,22.50
2018-09-30T14:47:15.907Z,22.50
2018-09-30T14:49:50.500Z,22.50
2018-09-30T14:52:24.969Z,22.60
2018-09-30T14:54:59.476Z,22.60
2018-09-30T14:57:33.923Z,22.60
2018-09-30T15:00:08.471Z,22.70
2018-09-30T15:02:43.020Z,22.70
2018-09-30T15:05:17.354Z,22.80
2018-09-30T15:07:51.813Z,22.70
2018-09-30T15:10:26.321Z,22.70
2018-09-30T15:13:00.640Z,22.60
2018-09-30T15:15:34.970Z,22.50
2018-09-30T15:18:09.520Z,22.30
2018-09-30T15:20:44.104Z,22.30
2018-09-30T15:23:18.505Z,22.40
2018-09-30T15:25:52.932Z,22.40
2018-09-30T15:28:27.286Z,22.40
2018-09-30T15:31:01.640Z,22.30
2018-09-30T15:36:22.152Z,22.20
2018-09-30T15:38:56.664Z,22.10
2018-09-30T15:41:30.989Z,22.10
2018-09-30T15:44:05.415Z,22.10
2018-09-30T15:46:39.860Z,22.10
2018-09-30T15:49:14.291Z,22.00
2018-09-30T15:51:48.680Z,22.00
2018-09-30T15:54:23.007Z,22.00
2018-09-30T15:56:57.413Z,22.00
2018-09-30T15:59:31.759Z,21.90
2018-09-30T16:02:06.392Z,21.90
2018-09-30T16:04:40.750Z,21.80
2018-09-30T16:07:15.153Z,21.80
2018-09-30T16:09:49.404Z,21.80
2018-09-30T16:12:23.775Z,21.80
2018-09-30T16:14:58.178Z,21.60
2018-09-30T16:17:32.648Z,21.50
2018-09-30T16:20:07.104Z,21.40
2018-09-30T16:22:41.586Z,21.30
2018-09-30T16:25:16.020Z,21.20
2018-09-30T16:27:50.521Z,21.20
2018-09-30T16:30:24.790Z,21.20
2018-09-30T16:32:59.172Z,21.20
2018-09-30T16:35:33.608Z,21.10
2018-09-30T16:38:08.061Z,21.10
2018-09-30T16:40:42.323Z,21.00
2018-09-30T16:43:17.016Z,20.90
2018-09-30T16:45:51.523Z,20.80
2018-09-30T16:48:25.964Z,20.70
2018-09-30T16:51:00.411Z,20.50
2018-09-30T16:53:34.775Z,20.40
2018-09-30T16:56:09.289Z,20.30
2018-09-30T16:58:43.704Z,20.20
2018-09-30T17:01:18.024Z,20.00
2018-09-30T17:03:52.432Z,20.00
2018-09-30T17:06:26.703Z,19.80
2018-09-30T17:09:01.013Z,19.70
2018-09-30T17:11:35.647Z,19.60
2018-09-30T17:14:09.951Z,19.40
2018-09-30T17:16:44.615Z,19.20
2018-09-30T17:19:19.107Z,19.00
2018-09-30T17:21:53.581Z,19.00
2018-09-30T17:24:28.117Z,18.90
2018-09-30T17:27:02.372Z,18.70
2018-09-30T17:29:36.667Z,18.60
2018-09-30T17:32:11.028Z,18.40
2018-09-30T17:34:45.471Z,18.10
2018-09-30T17:37:19.791Z,17.80
2018-09-30T17:39:54.540Z,17.50
2018-09-30T17:42:28.968Z,17.50
2018-09-30T17:45:03.260Z,17.50
2018-09-30T17:47:37.555Z,17.50
2018-09-30T17:50:11.935Z,17.40
2018-09-30T17:52:46.396Z,17.40
2018-09-30T17:55:20.751Z,17.30
2018-09-30T17:57:55.083Z,17.30
2018-09-30T18:00:29.651Z,17.20
2018-09-30T18:03:03.983Z,17.20
2018-09-30T18:05:38.459Z,17.10
2018-09-30T18:08:12.721Z,17.00
2018-09-30T18:10:47.290Z,17.00
2018-09-30T18:13:21.743Z,16.90
2018-09-30T18:15:56.136Z,16.80
2018-09-30T18:18:30.484Z,16.80
2018-09-30T18:21:04.803Z,16.70
2018-09-30T18:23:39.134Z,16.70
2018-09-30T18:26:13.475Z,16.70
2018-09-30T18:28:47.887Z,16.60
2018-09-30T18:31:22.340Z,16.60
2018-09-30T18:33:56.732Z,16.60
2018-09-30T18:36:31.256Z,16.40
2018-09-30T18:39:08.336Z,16.40
2018-09-30T18:41:42.872Z,16.30
2018-09-30T18:44:17.560Z,16.30
2018-09-30T18:46:52.093Z,16.20
2018-09-30T18:49:26.508Z,16.10
2018-09-30T18:52:00.808Z,16.20
2018-09-30T18:54:35.166Z,16.10
2018-09-30T18:57:09.673Z,16.00
2018-09-30T18:59:44.019Z,15.90
2018-09-30T19:02:18.411Z,15.80
2018-09-30T19:04:52.722Z,15.80
2018-09-30T19:07:27.043Z,15.80
2018-09-30T19:10:01.489Z,15.80
2018-09-30T19:12:35.792Z,15.70
2018-09-30T19:15:10.221Z,15.60
2018-09-30T19:17:44.616Z,15.60
2018-09-30T19:20:19.721Z,15.50
2018-09-30T19:22:54.132Z,15.50
2018-09-30T19:25:28.453Z,15.60
2018-09-30T19:28:02.924Z,15.60
2018-09-30T19:30:37.279Z,15.50
2018-09-30T19:33:11.672Z,15.50
2018-09-30T19:35:49.104Z,15.50
2018-09-30T19:38:23.559Z,15.40
2018-09-30T19:40:57.940Z,15.40
2018-09-30T19:43:32.471Z,15.40
2018-09-30T19:46:07.243Z,15.10
2018-09-30T19:48:41.860Z,14.80
2018-09-30T19:51:16.147Z,14.70
2018-09-30T19:53:50.619Z,14.70
2018-09-30T19:56:24.984Z,14.80
2018-09-30T19:58:59.566Z,14.80
2018-09-30T20:01:33.995Z,14.80
2018-09-30T20:04:08.404Z,14.90
2018-09-30T20:06:43.188Z,14.90
2018-09-30T20:09:17.835Z,14.80
2018-09-30T20:11:52.112Z,14.60
2018-09-30T20:14:26.677Z,14.30
2018-09-30T20:17:01.171Z,14.20
2018-09-30T20:19:35.846Z,14.10
2018-09-30T20:22:11.364Z,14.10
2018-09-30T20:24:46.155Z,14.20
2018-09-30T20:27:20.476Z,14.40
2018-09-30T20:29:54.838Z,14.40
2018-09-30T20:32:29.396Z,14.30
2018-09-30T20:35:03.861Z,14.30
2018-09-30T20:37:38.297Z,14.40
2018-09-30T20:40:13.768Z,14.50
2018-09-30T20:42:48.123Z,14.60
2018-09-30T20:45:22.503Z,14.70
2018-09-30T20:47:56.923Z,14.60
2018-09-30T20:50:31.337Z,14.60
2018-09-30T20:53:06.756Z,14.60
2018-09-30T20:55:41.203Z,14.50
2018-09-30T20:58:15.552Z,14.30
2018-09-30T21:00:49.947Z,14.30
2018-09-30T21:03:24.255Z,14.30
2018-09-30T21:06:20.463Z,14.40
2018-09-30T21:08:54.731Z,14.40
2018-09-30T21:11:29.497Z,14.50
2018-09-30T21:14:04.430Z,14.50
2018-09-30T21:16:39.015Z,14.60
2018-09-30T21:19:13.765Z,14.50
2018-09-30T21:21:48.105Z,14.40
2018-09-30T21:24:22.790Z,14.40
2018-09-30T21:26:57.483Z,14.50
2018-09-30T21:29:31.828Z,14.50
2018-09-30T21:32:06.454Z,14.60
2018-09-30T21:34:41.457Z,14.50
2018-09-30T21:37:16.071Z,14.50
2018-09-30T21:39:51.157Z,14.50
2018-09-30T21:42:25.844Z,14.50
2018-09-30T21:45:02.502Z,14.60
2018-09-30T21:47:37.067Z,14.50
2018-09-30T21:50:11.506Z,14.40
2018-09-30T21:52:46.143Z,14.40
2018-09-30T21:55:20.902Z,14.40
2018-09-30T21:57:55.532Z,14.40
2018-09-30T22:00:35.853Z,14.50
2018-09-30T22:03:12.950Z,14.50
2018-09-30T22:05:47.906Z,14.50
2018-09-30T22:08:22.503Z,14.30
2018-09-30T22:10:57.070Z,14.30
2018-09-30T22:13:31.634Z,14.20
2018-09-30T22:16:06.351Z,13.90
2018-09-30T22:18:40.677Z,13.90
2018-09-30T22:21:15.308Z,13.90
2018-09-30T22:23:49.614Z,14.10
2018-09-30T22:26:24.257Z,14.20
2018-09-30T22:28:58.731Z,14.30
2018-09-30T22:31:32.995Z,14.30
2018-09-30T22:34:07.401Z,14.40
2018-09-30T22:36:41.791Z,14.50
2018-09-30T22:39:16.251Z,14.50
2018-09-30T22:41:50.675Z,14.50
2018-09-30T22:44:25.111Z,14.50
2018-09-30T22:46:59.467Z,14.50
2018-09-30T22:49:34.041Z,14.60
2018-09-30T22:52:08.807Z,14.60
2018-09-30T22:54:43.356Z,14.60
2018-09-30T22:57:17.762Z,14.60
2018-09-30T22:59:52.447Z,14.60
2018-09-30T23:02:26.915Z,14.60
2018-09-30T23:05:01.500Z,14.70
2018-09-30T23:07:35.908Z,14.60
2018-09-30T23:10:11.755Z,14.60
2018-09-30T23:12:46.224Z,14.60
2018-09-30T23:15:21.082Z,14.60
2018-09-30T23:17:55.572Z,14.60
2018-09-30T23:20:30.592Z,14.60
2018-09-30T23:23:05.313Z,14.60
2018-09-30T23:25:40.426Z,14.60
2018-09-30T23:28:14.991Z,14.40
2018-09-30T23:30:49.623Z,14.30
2018-09-30T23:33:24.130Z,14.30
2018-09-30T23:35:58.542Z,14.30
2018-09-30T23:38:33.063Z,14.00
2018-09-30T23:41:07.556Z,13.60
2018-09-30T23:43:42.101Z,13.20
2018-09-30T23:46:16.766Z,12.90
2018-09-30T23:48:51.748Z,13.00
2018-09-30T23:51:26.369Z,13.10
2018-09-30T23:54:03.821Z,13.20
2018-09-30T23:56:38.486Z,13.20
2018-09-30T23:59:12.979Z,13.20
